Time;durP1;ratioP1;P1;durP2;ratioP2;P2;SDS_P1;SDS_P2;PMS_P1;PMS_P2;Temp;Humidity;BMP_temperature;BMP_pressure;BME280_temperature;BME280_humidity;BME280_pressure;Samples;Min_cycle;Max_cycle;Signal;HPM_P1;HPM_P2
2023/11/30 00:00:59;;;;;;;3.40;3.10;;;;;;;;;;6292088;22;20176;-79
2023/11/30 00:03:26;;;;;;;3.05;2.80;;;;;;;;;;6291831;22;20668;-79
2023/11/30 00:05:55;;;;;;;3.58;3.28;;;;;;;;;;6292718;22;20176;-78
2023/11/30 00:08:23;;;;;;;3.17;2.97;;;;;;;;;;6293107;22;20490;-79
2023/11/30 00:10:50;;;;;;;8.10;4.07;;;;;;;;;;6293450;22;20177;-79
2023/11/30 00:13:18;;;;;;;5.55;3.60;;;;;;;;;;6292184;22;20235;-79
2023/11/30 00:15:45;;;;;;;4.38;3.28;;;;;;;;;;6292407;22;20239;-78
2023/11/30 00:18:12;;;;;;;3.78;3.40;;;;;;;;;;6291532;22;20228;-78
2023/11/30 00:20:40;;;;;;;3.60;3.30;;;;;;;;;;6292254;22;20626;-78
2023/11/30 00:23:09;;;;;;;3.13;2.83;;;;;;;;;;6291511;22;20185;-79
2023/11/30 00:25:36;;;;;;;3.08;2.78;;;;;;;;;;6292541;22;20574;-79
2023/11/30 00:28:04;;;;;;;4.05;3.70;;;;;;;;;;6293117;22;20196;-78
2023/11/30 00:30:31;;;;;;;4.78;4.38;;;;;;;;;;6292008;22;20508;-78
2023/11/30 00:32:58;;;;;;;4.25;3.92;;;;;;;;;;6291934;22;20177;-79
2023/11/30 00:35:26;;;;;;;4.72;4.30;;;;;;;;;;6293574;22;20196;-79
2023/11/30 00:37:53;;;;;;;6.25;4.60;;;;;;;;;;6291652;22;20223;-78
2023/11/30 00:40:22;;;;;;;4.10;3.65;;;;;;;;;;6291933;22;20176;-79
2023/11/30 00:42:49;;;;;;;4.05;3.65;;;;;;;;;;6293000;22;20204;-79
2023/11/30 00:45:17;;;;;;;4.20;3.63;;;;;;;;;;6292217;22;20172;-79
2023/11/30 00:47:44;;;;;;;4.70;4.25;;;;;;;;;;6292339;22;20196;-79
2023/11/30 00:50:12;;;;;;;4.03;3.65;;;;;;;;;;6292560;22;20204;-78
2023/11/30 00:52:39;;;;;;;4.75;4.05;;;;;;;;;;6291952;22;20204;-79
2023/11/30 00:55:08;;;;;;;4.75;3.97;;;;;;;;;;6293156;22;20196;-79
2023/11/30 00:57:37;;;;;;;3.90;3.40;;;;;;;;;;6294114;22;20176;-79
2023/11/30 01:00:05;;;;;;;2.97;2.78;;;;;;;;;;6294254;22;20222;-79
2023/11/30 01:02:33;;;;;;;3.40;3.08;;;;;;;;;;6294283;22;20184;-79
2023/11/30 01:05:00;;;;;;;3.58;3.28;;;;;;;;;;6294102;22;20204;-79
2023/11/30 01:07:28;;;;;;;3.25;3.03;;;;;;;;;;6292338;22;20172;-79
2023/11/30 01:09:55;;;;;;;4.05;3.50;;;;;;;;;;6294463;22;20200;-79
2023/11/30 01:12:26;;;;;;;4.28;3.97;;;;;;;;;;6294220;22;20208;-79
2023/11/30 01:14:55;;;;;;;4.43;3.78;;;;;;;;;;6295743;22;20161;-79
2023/11/30 01:17:23;;;;;;;6.25;3.50;;;;;;;;;;6294553;22;20176;-79
2023/11/30 01:19:50;;;;;;;3.45;3.15;;;;;;;;;;6294196;22;20177;-78
2023/11/30 01:22:18;;;;;;;2.83;2.58;;;;;;;;;;6294038;22;20289;-79
2023/11/30 01:24:46;;;;;;;2.40;2.20;;;;;;;;;;6293650;22;20195;-79
2023/11/30 01:27:15;;;;;;;1.98;1.80;;;;;;;;;;6293742;22;20173;-78
2023/11/30 01:29:43;;;;;;;2.10;2.00;;;;;;;;;;6295242;22;20680;-78
2023/11/30 01:32:12;;;;;;;2.20;2.00;;;;;;;;;;6293989;22;20196;-79
2023/11/30 01:34:39;;;;;;;2.47;2.28;;;;;;;;;;6293728;22;20188;-77
2023/11/30 01:37:07;;;;;;;2.80;2.60;;;;;;;;;;6293747;22;20207;-79
2023/11/30 01:39:34;;;;;;;5.00;4.38;;;;;;;;;;6293418;22;20250;-79
2023/11/30 01:42:01;;;;;;;4.55;3.55;;;;;;;;;;6293452;22;20187;-79
2023/11/30 01:44:29;;;;;;;3.50;3.20;;;;;;;;;;6293436;22;20176;-79
2023/11/30 01:46:56;;;;;;;6.38;3.28;;;;;;;;;;6294522;22;20203;-79
2023/11/30 01:49:25;;;;;;;4.57;4.05;;;;;;;;;;6293360;22;20203;-79
2023/11/30 01:51:52;;;;;;;4.47;3.90;;;;;;;;;;6293221;22;20218;-79
2023/11/30 01:54:20;;;;;;;3.50;3.20;;;;;;;;;;6293514;22;20207;-79
2023/11/30 01:56:47;;;;;;;4.63;4.22;;;;;;;;;;6294227;22;20234;-79
2023/11/30 01:59:15;;;;;;;3.65;3.35;;;;;;;;;;6293025;22;20244;-79
2023/11/30 02:01:43;;;;;;;2.97;2.78;;;;;;;;;;6292564;22;20183;-78
2023/11/30 02:04:15;;;;;;;3.17;2.88;;;;;;;;;;6292993;22;20493;-79
2023/11/30 02:06:47;;;;;;;3.58;3.03;;;;;;;;;;6293717;22;20157;-78
2023/11/30 02:09:15;;;;;;;4.18;3.72;;;;;;;;;;6293950;22;20661;-79
2023/11/30 02:11:43;;;;;;;3.42;3.10;;;;;;;;;;6293251;22;20203;-79
2023/11/30 02:14:10;;;;;;;4.55;3.65;;;;;;;;;;6295189;22;20179;-79
2023/11/30 02:16:37;;;;;;;4.38;3.97;;;;;;;;;;6293659;22;20234;-79
2023/11/30 02:19:05;;;;;;;4.10;3.70;;;;;;;;;;6292642;22;20220;-78
2023/11/30 02:21:32;;;;;;;3.85;3.55;;;;;;;;;;6292626;22;20561;-79
2023/11/30 02:24:01;;;;;;;2.67;2.45;;;;;;;;;;6292766;22;20185;-79
2023/11/30 02:26:29;;;;;;;4.18;3.47;;;;;;;;;;6293505;22;20175;-78
2023/11/30 02:28:56;;;;;;;4.00;3.65;;;;;;;;;;6293903;22;20584;-79
2023/11/30 02:31:24;;;;;;;3.88;3.15;;;;;;;;;;6292129;22;20200;-79
2023/11/30 02:33:51;;;;;;;3.45;3.17;;;;;;;;;;6292580;22;20204;-79
2023/11/30 02:36:18;;;;;;;3.88;3.42;;;;;;;;;;6292436;22;20216;-79
2023/11/30 02:38:46;;;;;;;4.00;3.47;;;;;;;;;;6293451;22;20597;-79
2023/11/30 02:41:16;;;;;;;3.17;2.90;;;;;;;;;;6292175;22;20200;-79
2023/11/30 02:43:44;;;;;;;3.47;3.17;;;;;;;;;;6292637;22;20488;-79
2023/11/30 02:46:11;;;;;;;2.33;2.20;;;;;;;;;;6292809;22;20198;-79
2023/11/30 02:48:39;;;;;;;3.28;2.97;;;;;;;;;;6292298;22;20227;-79
2023/11/30 02:51:07;;;;;;;4.25;3.85;;;;;;;;;;6285363;22;20200;-80
2023/11/30 02:53:34;;;;;;;3.53;3.22;;;;;;;;;;6285452;22;20583;-79
2023/11/30 02:56:02;;;;;;;4.30;3.90;;;;;;;;;;6284565;22;20176;-79
2023/11/30 02:58:30;;;;;;;4.07;3.67;;;;;;;;;;6280127;22;20192;-78
2023/11/30 03:00:58;;;;;;;4.93;3.50;;;;;;;;;;6282336;22;20204;-79
2023/11/30 03:03:25;;;;;;;3.65;2.72;;;;;;;;;;6292767;22;20227;-79
2023/11/30 03:05:53;;;;;;;2.70;2.50;;;;;;;;;;6290893;22;20196;-79
2023/11/30 03:08:20;;;;;;;6.30;4.10;;;;;;;;;;6292261;22;20208;-79
2023/11/30 03:10:48;;;;;;;3.47;3.17;;;;;;;;;;6290905;22;20204;-79
2023/11/30 03:13:15;;;;;;;3.40;3.10;;;;;;;;;;6292593;22;20200;-79
2023/11/30 03:15:46;;;;;;;3.92;3.47;;;;;;;;;;6292473;22;20590;-79
2023/11/30 03:18:14;;;;;;;6.63;3.40;;;;;;;;;;6292261;22;20200;-78
2023/11/30 03:20:41;;;;;;;3.50;3.15;;;;;;;;;;6291119;22;20263;-79
2023/11/30 03:23:09;;;;;;;3.35;2.70;;;;;;;;;;6290689;22;20186;-79
2023/11/30 03:25:36;;;;;;;8.43;4.68;;;;;;;;;;6291637;22;20200;-79
2023/11/30 03:28:04;;;;;;;37.30;16.05;;;;;;;;;;6291092;22;20203;-79
2023/11/30 03:30:31;;;;;;;18.63;7.82;;;;;;;;;;6290436;22;20668;-79
2023/11/30 03:33:00;;;;;;;6.45;4.45;;;;;;;;;;6291483;22;20218;-79
2023/11/30 03:35:28;;;;;;;5.63;3.42;;;;;;;;;;6291729;22;20496;-79
2023/11/30 03:37:55;;;;;;;6.57;3.55;;;;;;;;;;6292217;22;20224;-79
2023/11/30 03:40:22;;;;;;;6.10;3.58;;;;;;;;;;6290847;22;20588;-79
2023/11/30 03:42:50;;;;;;;4.45;3.78;;;;;;;;;;6289977;22;20200;-80
2023/11/30 03:45:17;;;;;;;8.38;3.88;;;;;;;;;;6276036;22;20575;-80
2023/11/30 03:47:45;;;;;;;5.82;4.30;;;;;;;;;;6277248;22;20263;-79
2023/11/30 03:50:14;;;;;;;5.43;4.22;;;;;;;;;;6284051;22;20212;-79
2023/11/30 03:52:41;;;;;;;3.97;3.55;;;;;;;;;;6282471;22;20180;-79
2023/11/30 03:55:09;;;;;;;4.97;3.83;;;;;;;;;;6276620;22;20736;-79
2023/11/30 03:57:37;;;;;;;3.35;3.05;;;;;;;;;;6274720;22;20197;-77
2023/11/30 04:00:07;;;;;;;3.70;3.25;;;;;;;;;;6275884;22;20259;-79
2023/11/30 04:02:35;;;;;;;2.85;2.47;;;;;;;;;;6275124;22;20171;-77
2023/11/30 04:05:05;;;;;;;2.20;2.00;;;;;;;;;;6275304;22;20177;-77
2023/11/30 04:07:34;;;;;;;2.40;2.20;;;;;;;;;;6275847;22;20255;-79
2023/11/30 04:10:02;;;;;;;4.25;2.75;;;;;;;;;;6275470;22;20176;-77
2023/11/30 04:12:29;;;;;;;13.35;7.82;;;;;;;;;;6275730;22;20176;-79
2023/11/30 04:14:57;;;;;;;9.25;6.18;;;;;;;;;;6274826;22;20255;-79
2023/11/30 04:17:24;;;;;;;7.53;3.95;;;;;;;;;;6274483;22;20526;-77
2023/11/30 04:19:51;;;;;;;6.95;4.72;;;;;;;;;;6278358;22;20204;-79
2023/11/30 04:22:19;;;;;;;3.53;3.22;;;;;;;;;;6289270;22;20214;-78
2023/11/30 04:24:48;;;;;;;3.38;3.08;;;;;;;;;;6291468;22;20207;-77
2023/11/30 04:27:15;;;;;;;8.95;4.57;;;;;;;;;;6291790;22;20200;-78
2023/11/30 04:29:42;;;;;;;5.50;4.47;;;;;;;;;;6290992;22;20390;-79
2023/11/30 04:32:10;;;;;;;5.15;3.20;;;;;;;;;;6293710;22;20207;-79
2023/11/30 04:34:37;;;;;;;5.65;3.65;;;;;;;;;;6293802;22;20572;-79
2023/11/30 04:37:05;;;;;;;3.92;3.58;;;;;;;;;;6292607;22;20192;-79
2023/11/30 04:39:32;;;;;;;2.70;2.50;;;;;;;;;;6294175;22;20224;-79
2023/11/30 04:42:02;;;;;;;4.28;3.28;;;;;;;;;;6294051;22;20199;-79
2023/11/30 04:44:30;;;;;;;2.42;2.17;;;;;;;;;;6294045;22;20180;-78
2023/11/30 04:46:57;;;;;;;2.42;2.22;;;;;;;;;;6293052;22;20204;-79
2023/11/30 04:49:25;;;;;;;3.17;2.95;;;;;;;;;;6293454;22;20228;-79
2023/11/30 04:51:53;;;;;;;2.88;2.60;;;;;;;;;;6291482;22;20667;-79
2023/11/30 04:54:20;;;;;;;2.22;2.03;;;;;;;;;;6293364;22;20204;-79
2023/11/30 04:56:47;;;;;;;4.43;3.78;;;;;;;;;;6292820;22;20204;-79
2023/11/30 04:59:16;;;;;;;7.47;4.60;;;;;;;;;;6293569;22;20219;-79
2023/11/30 05:01:44;;;;;;;4.57;3.95;;;;;;;;;;6292327;22;20177;-79
2023/11/30 05:04:11;;;;;;;4.90;3.72;;;;;;;;;;6292421;22;20176;-78
2023/11/30 05:06:39;;;;;;;7.13;4.35;;;;;;;;;;6292265;22;20211;-79
2023/11/30 05:09:06;;;;;;;4.43;3.95;;;;;;;;;;6292810;22;20584;-79
2023/11/30 05:11:34;;;;;;;4.55;3.85;;;;;;;;;;6292724;22;20172;-79
2023/11/30 05:14:01;;;;;;;4.72;3.55;;;;;;;;;;6292998;22;20183;-79
2023/11/30 05:16:30;;;;;;;4.38;3.95;;;;;;;;;;6292127;22;20204;-77
2023/11/30 05:18:57;;;;;;;6.65;5.82;;;;;;;;;;6293237;22;20196;-79
2023/11/30 05:21:25;;;;;;;8.73;6.28;;;;;;;;;;6293215;22;20187;-79
2023/11/30 05:23:53;;;;;;;6.45;5.80;;;;;;;;;;6293570;22;20184;-79
2023/11/30 05:26:20;;;;;;;9.07;7.70;;;;;;;;;;6298635;22;20232;-79
2023/11/30 05:28:48;;;;;;;11.85;8.73;;;;;;;;;;6299518;22;20193;-79
2023/11/30 05:31:15;;;;;;;14.38;9.68;;;;;;;;;;6301168;22;20179;-79
2023/11/30 05:33:44;;;;;;;9.23;6.97;;;;;;;;;;6299658;22;20203;-79
2023/11/30 05:36:12;;;;;;;9.57;7.35;;;;;;;;;;6293159;22;20200;-79
2023/11/30 05:38:40;;;;;;;11.15;8.98;;;;;;;;;;6292162;22;20234;-79
2023/11/30 05:41:07;;;;;;;8.77;7.85;;;;;;;;;;6290480;22;20571;-79
2023/11/30 05:43:35;;;;;;;8.98;6.60;;;;;;;;;;6291595;22;20176;-79
2023/11/30 05:46:05;;;;;;;7.68;6.03;;;;;;;;;;6291777;22;20176;-79
2023/11/30 05:48:33;;;;;;;8.65;6.43;;;;;;;;;;6291277;22;20192;-78
2023/11/30 05:51:02;;;;;;;7.45;6.18;;;;;;;;;;6291307;22;20633;-78
2023/11/30 05:53:30;;;;;;;7.43;6.28;;;;;;;;;;6292191;22;20176;-79
2023/11/30 05:55:57;;;;;;;8.30;7.10;;;;;;;;;;6291508;22;20176;-78
2023/11/30 05:58:24;;;;;;;7.22;6.50;;;;;;;;;;6291369;22;20235;-79
2023/11/30 06:00:52;;;;;;;6.57;5.70;;;;;;;;;;6290239;22;20200;-78
2023/11/30 06:03:19;;;;;;;6.60;5.30;;;;;;;;;;6290358;22;20211;-79
2023/11/30 06:05:47;;;;;;;7.25;5.15;;;;;;;;;;6290736;22;20176;-79
2023/11/30 06:08:16;;;;;;;4.85;4.35;;;;;;;;;;6291236;22;20192;-79
2023/11/30 06:10:43;;;;;;;5.18;4.68;;;;;;;;;;6283818;22;20251;-79
2023/11/30 06:13:12;;;;;;;5.88;5.07;;;;;;;;;;6291363;22;20184;-79
2023/11/30 06:15:40;;;;;;;7.05;5.22;;;;;;;;;;6291904;22;20228;-79
2023/11/30 06:18:07;;;;;;;6.55;5.93;;;;;;;;;;6291380;22;20273;-79
2023/11/30 06:20:35;;;;;;;5.95;5.30;;;;;;;;;;6291866;22;20177;-79
2023/11/30 06:23:03;;;;;;;4.93;4.32;;;;;;;;;;6289656;22;20260;-79
2023/11/30 06:25:31;;;;;;;7.85;6.57;;;;;;;;;;6290214;22;20228;-78
2023/11/30 06:27:59;;;;;;;5.93;4.90;;;;;;;;;;6291435;22;20228;-79
2023/11/30 06:30:26;;;;;;;7.47;5.90;;;;;;;;;;6289746;22;20211;-79
2023/11/30 06:32:54;;;;;;;9.15;7.07;;;;;;;;;;6291092;22;20226;-79
2023/11/30 06:35:21;;;;;;;11.75;8.43;;;;;;;;;;6290688;22;20200;-79
2023/11/30 06:37:49;;;;;;;11.77;8.75;;;;;;;;;;6289702;22;20223;-79
2023/11/30 06:40:17;;;;;;;13.90;8.98;;;;;;;;;;6290945;22;20227;-78
2023/11/30 06:42:46;;;;;;;9.23;7.65;;;;;;;;;;6291283;22;20570;-79
2023/11/30 06:45:13;;;;;;;8.85;7.53;;;;;;;;;;6291203;22;20200;-79
2023/11/30 06:47:41;;;;;;;9.63;8.27;;;;;;;;;;6290852;22;20779;-79
2023/11/30 06:50:09;;;;;;;10.32;8.80;;;;;;;;;;6282737;22;20247;-79
2023/11/30 06:52:37;;;;;;;8.95;7.97;;;;;;;;;;6289380;22;20220;-78
2023/11/30 06:55:05;;;;;;;8.15;7.35;;;;;;;;;;6284978;22;20207;-79
2023/11/30 06:57:33;;;;;;;10.07;8.07;;;;;;;;;;6289782;22;20176;-79
2023/11/30 07:00:03;;;;;;;8.60;7.50;;;;;;;;;;6289680;22;20744;-79
2023/11/30 07:02:30;;;;;;;9.40;7.47;;;;;;;;;;6286583;22;20194;-79
2023/11/30 07:04:59;;;;;;;12.95;9.88;;;;;;;;;;6290627;22;20177;-79
2023/11/30 07:07:26;;;;;;;7.75;6.78;;;;;;;;;;6290744;22;20188;-78
2023/11/30 07:09:54;;;;;;;18.13;10.23;;;;;;;;;;6289874;22;20203;-78
2023/11/30 07:12:21;;;;;;;16.02;12.00;;;;;;;;;;6289982;22;20210;-79
2023/11/30 07:14:49;;;;;;;11.38;9.07;;;;;;;;;;6288112;22;20266;-79
2023/11/30 07:17:18;;;;;;;14.45;10.02;;;;;;;;;;6290108;22;20172;-79
2023/11/30 07:19:46;;;;;;;11.13;8.40;;;;;;;;;;6290510;22;20203;-79
2023/11/30 07:22:13;;;;;;;10.60;7.55;;;;;;;;;;6287729;22;20223;-78
2023/11/30 07:24:41;;;;;;;7.53;6.20;;;;;;;;;;6289448;22;20176;-79
2023/11/30 07:27:09;;;;;;;11.25;7.65;;;;;;;;;;6286728;22;20176;-79
2023/11/30 07:29:38;;;;;;;7.90;6.05;;;;;;;;;;6289417;22;20192;-79
2023/11/30 07:32:06;;;;;;;6.38;5.60;;;;;;;;;;6291029;22;20176;-79
2023/11/30 07:34:36;;;;;;;10.07;7.63;;;;;;;;;;6285361;22;20200;-79
2023/11/30 07:37:04;;;;;;;11.93;9.18;;;;;;;;;;6289274;22;20196;-79
2023/11/30 07:39:31;;;;;;;9.57;7.95;;;;;;;;;;6290032;22;20212;-79
2023/11/30 07:41:59;;;;;;;8.60;6.63;;;;;;;;;;6289706;22;20215;-79
2023/11/30 07:44:27;;;;;;;8.45;6.47;;;;;;;;;;6290954;22;20200;-78
2023/11/30 07:46:55;;;;;;;12.88;10.32;;;;;;;;;;6286211;22;20176;-79
2023/11/30 07:49:22;;;;;;;10.65;8.60;;;;;;;;;;6289899;22;20192;-78
2023/11/30 07:51:51;;;;;;;9.88;7.70;;;;;;;;;;6289408;22;20183;-79
2023/11/30 07:54:19;;;;;;;12.68;10.35;;;;;;;;;;6290374;22;20200;-79
2023/11/30 07:56:46;;;;;;;8.85;7.57;;;;;;;;;;6287379;22;20200;-79
2023/11/30 07:59:14;;;;;;;10.38;8.00;;;;;;;;;;6290848;22;20235;-79
2023/11/30 08:01:42;;;;;;;9.23;7.60;;;;;;;;;;6285563;22;20200;-79
2023/11/30 08:04:09;;;;;;;8.55;7.60;;;;;;;;;;6290392;22;20644;-79
2023/11/30 08:06:37;;;;;;;7.72;6.07;;;;;;;;;;6291346;22;20200;-79
2023/11/30 08:09:06;;;;;;;6.00;5.22;;;;;;;;;;6287575;22;20276;-79
2023/11/30 08:11:33;;;;;;;6.10;5.50;;;;;;;;;;6291380;22;20173;-79
2023/11/30 08:14:01;;;;;;;7.30;5.50;;;;;;;;;;6291851;22;20176;-79
2023/11/30 08:16:29;;;;;;;7.00;6.25;;;;;;;;;;6291623;22;20179;-79
2023/11/30 08:18:58;;;;;;;7.25;6.15;;;;;;;;;;6292290;22;20192;-79
2023/11/30 08:21:25;;;;;;;6.13;5.53;;;;;;;;;;6292461;22;20538;-79
2023/11/30 08:23:52;;;;;;;6.38;5.78;;;;;;;;;;6289072;22;20184;-78
2023/11/30 08:26:21;;;;;;;7.85;6.75;;;;;;;;;;6293241;22;20331;-78
2023/11/30 08:28:50;;;;;;;9.32;8.38;;;;;;;;;;6291528;22;20740;-79
2023/11/30 08:31:17;;;;;;;9.13;8.23;;;;;;;;;;6292546;22;20172;-79
2023/11/30 08:33:47;;;;;;;10.35;9.23;;;;;;;;;;6290939;22;20255;-79
2023/11/30 08:36:14;;;;;;;10.18;9.07;;;;;;;;;;6292213;22;20186;-79
2023/11/30 08:38:41;;;;;;;11.07;9.88;;;;;;;;;;6292448;22;20200;-80
2023/11/30 08:41:09;;;;;;;15.43;11.07;;;;;;;;;;6291663;22;20196;-79
2023/11/30 08:43:38;;;;;;;14.85;11.30;;;;;;;;;;6291954;22;20203;-78
2023/11/30 08:46:06;;;;;;;12.05;10.85;;;;;;;;;;6289917;22;20195;-79
2023/11/30 08:48:33;;;;;;;14.75;11.43;;;;;;;;;;6291827;22;20223;-79
2023/11/30 08:51:01;;;;;;;9.65;8.65;;;;;;;;;;6291863;22;20195;-79
2023/11/30 08:53:28;;;;;;;10.07;8.98;;;;;;;;;;6292109;22;20200;-79
2023/11/30 08:55:56;;;;;;;11.38;9.45;;;;;;;;;;6290183;22;20645;-79
2023/11/30 08:58:23;;;;;;;12.43;10.20;;;;;;;;;;6287957;22;20203;-79
2023/11/30 09:00:52;;;;;;;12.88;10.38;;;;;;;;;;6287303;22;20246;-79
2023/11/30 09:03:20;;;;;;;13.63;10.32;;;;;;;;;;6289682;22;20177;-78
2023/11/30 09:05:48;;;;;;;9.15;7.22;;;;;;;;;;6289306;22;20176;-79
2023/11/30 09:08:15;;;;;;;7.43;6.72;;;;;;;;;;6291000;22;20594;-80
2023/11/30 09:10:43;;;;;;;7.85;7.00;;;;;;;;;;6289892;22;20257;-78
2023/11/30 09:13:11;;;;;;;7.00;6.35;;;;;;;;;;6288399;22;20647;-80
2023/11/30 09:15:38;;;;;;;11.32;9.07;;;;;;;;;;6290197;22;20282;-79
2023/11/30 09:18:10;;;;;;;8.80;7.88;;;;;;;;;;6291920;22;20593;-79
2023/11/30 09:20:38;;;;;;;9.68;7.45;;;;;;;;;;6290268;22;20176;-79
2023/11/30 09:23:05;;;;;;;8.18;6.85;;;;;;;;;;6288859;22;20199;-79
2023/11/30 09:25:33;;;;;;;9.15;7.72;;;;;;;;;;6291645;22;20187;-79
2023/11/30 09:28:00;;;;;;;10.35;8.00;;;;;;;;;;6290897;22;20666;-79
2023/11/30 09:30:28;;;;;;;9.13;8.15;;;;;;;;;;6281601;22;20225;-79
2023/11/30 09:32:55;;;;;;;11.63;9.07;;;;;;;;;;6287178;22;20196;-80
2023/11/30 09:35:25;;;;;;;7.93;7.15;;;;;;;;;;6282526;22;20207;-77
2023/11/30 09:37:53;;;;;;;8.05;7.25;;;;;;;;;;6282992;22;20192;-79
2023/11/30 09:40:20;;;;;;;7.22;6.43;;;;;;;;;;6286249;22;20224;-81
2023/11/30 09:42:48;;;;;;;8.07;6.82;;;;;;;;;;6286194;22;20255;-80
2023/11/30 09:45:15;;;;;;;6.40;5.30;;;;;;;;;;6283259;22;20263;-80
2023/11/30 09:47:43;;;;;;;10.45;8.82;;;;;;;;;;6286140;22;20658;-80
2023/11/30 09:50:12;;;;;;;8.98;8.07;;;;;;;;;;6285679;22;20251;-79
2023/11/30 09:52:42;;;;;;;8.00;6.25;;;;;;;;;;6285219;22;20187;-79
2023/11/30 09:55:10;;;;;;;7.03;6.10;;;;;;;;;;6285514;22;20204;-79
2023/11/30 09:57:38;;;;;;;6.47;5.40;;;;;;;;;;6287419;22;20197;-80
2023/11/30 10:00:07;;;;;;;9.05;7.70;;;;;;;;;;6286269;22;20208;-80
2023/11/30 10:02:34;;;;;;;10.52;7.20;;;;;;;;;;6285903;22;20183;-79
2023/11/30 10:05:03;;;;;;;6.78;6.07;;;;;;;;;;6285183;22;20207;-80
2023/11/30 10:07:30;;;;;;;6.22;5.60;;;;;;;;;;6283944;22;20691;-79
2023/11/30 10:09:59;;;;;;;6.78;5.82;;;;;;;;;;6284904;22;20211;-80
2023/11/30 10:12:27;;;;;;;8.43;6.72;;;;;;;;;;6285198;22;20224;-80
2023/11/30 10:15:01;;;;;;;6.40;5.75;;;;;;;;;;6284411;22;20252;-80
2023/11/30 10:17:29;;;;;;;5.20;4.70;;;;;;;;;;6285642;22;20167;-80
2023/11/30 10:19:56;;;;;;;5.47;4.88;;;;;;;;;;6280835;22;20210;-78
2023/11/30 10:22:24;;;;;;;6.20;5.63;;;;;;;;;;6286000;22;20521;-79
2023/11/30 10:24:51;;;;;;;6.00;5.40;;;;;;;;;;6285050;22;20228;-79
2023/11/30 10:27:22;;;;;;;6.45;4.95;;;;;;;;;;6286243;22;20637;-79
2023/11/30 10:29:51;;;;;;;4.45;4.05;;;;;;;;;;6285013;22;20171;-80
2023/11/30 10:32:19;;;;;;;6.22;5.03;;;;;;;;;;6285978;22;20506;-79
2023/11/30 10:34:49;;;;;;;5.68;5.18;;;;;;;;;;6285613;22;20255;-79
2023/11/30 10:37:20;;;;;;;5.43;4.88;;;;;;;;;;6285434;22;20215;-79
2023/11/30 10:39:56;;;;;;;7.05;6.35;;;;;;;;;;6285820;22;20560;-80
2023/11/30 10:42:25;;;;;;;6.53;4.88;;;;;;;;;;6286501;22;20698;-80
2023/11/30 10:44:54;;;;;;;8.13;6.82;;;;;;;;;;6285458;22;20581;-79
2023/11/30 10:47:24;;;;;;;8.68;7.80;;;;;;;;;;6284938;22;20176;-79
2023/11/30 10:49:51;;;;;;;6.68;6.07;;;;;;;;;;6285280;22;20552;-79
2023/11/30 10:52:20;;;;;;;5.80;5.28;;;;;;;;;;6286190;22;20255;-79
2023/11/30 10:54:53;;;;;;;5.70;5.15;;;;;;;;;;6285001;22;20613;-79
2023/11/30 10:57:21;;;;;;;5.85;5.25;;;;;;;;;;6286695;22;20191;-80
2023/11/30 10:59:58;;;;;;;6.35;5.75;;;;;;;;;;6286308;22;20177;-80
2023/11/30 11:02:25;;;;;;;7.35;6.57;;;;;;;;;;6285043;22;20720;-79
2023/11/30 11:04:53;;;;;;;7.20;5.88;;;;;;;;;;6283670;22;20208;-79
2023/11/30 11:07:21;;;;;;;5.18;4.68;;;;;;;;;;6284548;22;20180;-79
2023/11/30 11:09:54;;;;;;;6.93;6.28;;;;;;;;;;6283078;22;20177;-80
2023/11/30 11:12:23;;;;;;;6.35;5.75;;;;;;;;;;6283751;22;20240;-79
2023/11/30 11:15:05;;;;;;;7.40;6.68;;;;;;;;;;6284137;22;20180;-79
2023/11/30 11:17:32;;;;;;;7.60;6.13;;;;;;;;;;6285469;22;20157;-80
2023/11/30 11:20:01;;;;;;;6.03;5.45;;;;;;;;;;6285756;22;20176;-80
2023/11/30 11:22:31;;;;;;;6.57;5.72;;;;;;;;;;6286333;22;20196;-79
2023/11/30 11:25:00;;;;;;;7.43;6.65;;;;;;;;;;6286454;22;20214;-80
2023/11/30 11:27:29;;;;;;;7.65;6.85;;;;;;;;;;6285935;22;20215;-80
2023/11/30 11:30:05;;;;;;;6.97;6.38;;;;;;;;;;6286379;22;20185;-80
2023/11/30 11:32:34;;;;;;;5.88;5.10;;;;;;;;;;6285266;22;20157;-79
2023/11/30 11:35:02;;;;;;;8.30;7.25;;;;;;;;;;6286643;22;20200;-80
2023/11/30 11:37:29;;;;;;;14.70;10.65;;;;;;;;;;6287079;22;20176;-79
2023/11/30 11:39:57;;;;;;;14.10;11.50;;;;;;;;;;6286207;22;20479;-79
2023/11/30 11:42:25;;;;;;;22.00;15.35;;;;;;;;;;6285843;22;20196;-78
2023/11/30 11:44:52;;;;;;;15.85;10.43;;;;;;;;;;6285256;22;20208;-79
2023/11/30 11:47:22;;;;;;;12.23;8.80;;;;;;;;;;6286797;22;20203;-80
2023/11/30 11:49:49;;;;;;;9.55;6.13;;;;;;;;;;6286628;22;20215;-79
2023/11/30 11:52:20;;;;;;;8.88;6.00;;;;;;;;;;6285801;22;20184;-79
2023/11/30 11:54:58;;;;;;;6.28;5.53;;;;;;;;;;6287148;22;20176;-79
2023/11/30 11:57:32;;;;;;;5.25;4.72;;;;;;;;;;6288414;22;20212;-80
2023/11/30 12:00:00;;;;;;;5.13;4.63;;;;;;;;;;6288144;22;20167;-80
2023/11/30 12:02:29;;;;;;;5.05;4.55;;;;;;;;;;6287500;22;20727;-80
2023/11/30 12:05:08;;;;;;;5.07;4.57;;;;;;;;;;6287522;22;20203;-79
2023/11/30 12:07:37;;;;;;;5.22;4.72;;;;;;;;;;6287597;22;20167;-80
2023/11/30 12:10:05;;;;;;;4.53;4.13;;;;;;;;;;6287789;22;20181;-78
2023/11/30 12:12:33;;;;;;;4.65;4.20;;;;;;;;;;6287157;22;20218;-79
2023/11/30 12:15:01;;;;;;;5.78;4.72;;;;;;;;;;6286654;22;20176;-80
2023/11/30 12:17:30;;;;;;;4.82;4.32;;;;;;;;;;6286301;22;20180;-79
2023/11/30 12:19:58;;;;;;;4.75;3.65;;;;;;;;;;6286606;22;20724;-78
2023/11/30 12:22:25;;;;;;;3.17;2.97;;;;;;;;;;6286389;22;20212;-79
2023/11/30 12:24:53;;;;;;;3.85;3.40;;;;;;;;;;6286359;22;20200;-79
2023/11/30 12:27:20;;;;;;;3.72;3.33;;;;;;;;;;6286364;22;20176;-79
2023/11/30 12:29:48;;;;;;;4.13;3.72;;;;;;;;;;6286650;22;20745;-77
2023/11/30 12:32:16;;;;;;;5.10;4.60;;;;;;;;;;6285495;22;20192;-79
2023/11/30 12:34:44;;;;;;;5.25;4.25;;;;;;;;;;6286198;22;20219;-79
2023/11/30 12:37:12;;;;;;;3.20;3.00;;;;;;;;;;6286160;22;20211;-80
2023/11/30 12:39:39;;;;;;;4.82;4.43;;;;;;;;;;6286440;22;20192;-79
2023/11/30 12:42:07;;;;;;;4.97;4.40;;;;;;;;;;6285902;22;20216;-80
2023/11/30 12:44:34;;;;;;;5.45;4.18;;;;;;;;;;6285700;22;20232;-80
2023/11/30 12:47:02;;;;;;;5.07;3.83;;;;;;;;;;6286984;22;20200;-79
2023/11/30 12:49:29;;;;;;;5.75;5.07;;;;;;;;;;6286482;22;20203;-80
2023/11/30 12:51:58;;;;;;;7.00;5.88;;;;;;;;;;6287598;22;20180;-78
2023/11/30 12:54:25;;;;;;;6.53;5.93;;;;;;;;;;6288787;22;20209;-80
2023/11/30 12:56:53;;;;;;;9.35;6.82;;;;;;;;;;6288754;22;20583;-78
2023/11/30 12:59:20;;;;;;;7.45;6.57;;;;;;;;;;6289229;22;20279;-80
2023/11/30 13:01:48;;;;;;;7.05;5.97;;;;;;;;;;6288703;22;20244;-80
2023/11/30 13:04:15;;;;;;;7.45;6.55;;;;;;;;;;6289448;22;20207;-79
2023/11/30 13:06:44;;;;;;;6.68;5.43;;;;;;;;;;6288813;22;20242;-79
2023/11/30 13:09:14;;;;;;;5.80;5.25;;;;;;;;;;6289162;22;20569;-79
2023/11/30 13:11:41;;;;;;;4.78;4.28;;;;;;;;;;6289376;22;20181;-80
2023/11/30 13:14:09;;;;;;;5.75;5.22;;;;;;;;;;6289337;22;20203;-79
2023/11/30 13:16:36;;;;;;;5.40;4.93;;;;;;;;;;6289247;22;20224;-79
2023/11/30 13:19:04;;;;;;;9.88;8.13;;;;;;;;;;6288579;22;20223;-80
2023/11/30 13:21:31;;;;;;;11.07;8.77;;;;;;;;;;6288702;22;20184;-79
2023/11/30 13:23:59;;;;;;;9.70;8.70;;;;;;;;;;6288299;22;20200;-80
2023/11/30 13:26:27;;;;;;;9.90;8.07;;;;;;;;;;6287621;22;20678;-79
2023/11/30 13:28:55;;;;;;;8.15;7.38;;;;;;;;;;6288484;22;20661;-79
2023/11/30 13:31:22;;;;;;;7.07;6.40;;;;;;;;;;6288179;22;20176;-80
2023/11/30 13:33:50;;;;;;;9.90;8.90;;;;;;;;;;6287173;22;20203;-80
2023/11/30 13:36:18;;;;;;;9.00;7.57;;;;;;;;;;6288988;22;20176;-79
2023/11/30 13:38:45;;;;;;;8.25;6.68;;;;;;;;;;6287973;22;20192;-80
2023/11/30 13:41:13;;;;;;;6.13;5.20;;;;;;;;;;6287607;22;20208;-78
2023/11/30 13:43:41;;;;;;;6.35;5.75;;;;;;;;;;6287602;22;20199;-79
2023/11/30 13:46:12;;;;;;;5.65;5.15;;;;;;;;;;6287843;22;20212;-79
2023/11/30 13:48:40;;;;;;;14.65;11.55;;;;;;;;;;6287928;22;20599;-79
2023/11/30 13:51:09;;;;;;;10.63;8.68;;;;;;;;;;6287267;22;20620;-78
2023/11/30 13:53:36;;;;;;;11.65;9.45;;;;;;;;;;6287584;22;20195;-79
2023/11/30 13:56:04;;;;;;;7.97;7.18;;;;;;;;;;6288485;22;20198;-79
2023/11/30 13:58:32;;;;;;;9.75;8.25;;;;;;;;;;6288595;22;20254;-80
2023/11/30 14:01:01;;;;;;;8.27;7.47;;;;;;;;;;6288156;22;20176;-79
2023/11/30 14:03:29;;;;;;;10.20;9.20;;;;;;;;;;6286836;22;20568;-79
2023/11/30 14:05:56;;;;;;;10.27;9.18;;;;;;;;;;6287869;22;20252;-80
2023/11/30 14:08:26;;;;;;;9.32;8.35;;;;;;;;;;6287767;22;20223;-79
2023/11/30 14:10:53;;;;;;;14.70;11.70;;;;;;;;;;6288426;22;20179;-79
2023/11/30 14:13:21;;;;;;;11.45;9.90;;;;;;;;;;6287475;22;20173;-80
2023/11/30 14:15:48;;;;;;;13.30;11.90;;;;;;;;;;6287466;22;20207;-79
2023/11/30 14:18:17;;;;;;;16.05;11.88;;;;;;;;;;6288209;22;20249;-79
2023/11/30 14:20:45;;;;;;;14.90;11.85;;;;;;;;;;6288238;22;20566;-79
2023/11/30 14:23:12;;;;;;;9.10;7.00;;;;;;;;;;6287671;22;20230;-80
2023/11/30 14:25:40;;;;;;;7.85;7.07;;;;;;;;;;6288508;22;20180;-78
2023/11/30 14:28:08;;;;;;;11.07;8.70;;;;;;;;;;6288455;22;20215;-79
2023/11/30 14:30:36;;;;;;;11.07;8.48;;;;;;;;;;6286304;22;20228;-79
2023/11/30 14:33:04;;;;;;;9.85;8.75;;;;;;;;;;6288233;22;20173;-79
2023/11/30 14:35:32;;;;;;;10.48;8.73;;;;;;;;;;6287330;22;20199;-78
2023/11/30 14:38:00;;;;;;;11.27;9.70;;;;;;;;;;6287801;22;20224;-78
2023/11/30 14:40:27;;;;;;;10.55;8.82;;;;;;;;;;6287667;22;20207;-78
2023/11/30 14:42:55;;;;;;;9.23;8.25;;;;;;;;;;6288330;22;20176;-79
2023/11/30 14:45:24;;;;;;;7.18;6.43;;;;;;;;;;6288920;22;20231;-78